Time;durP1;ratioP1;P1;durP2;ratioP2;P2;SDS_P1;SDS_P2;PMS_P1;PMS_P2;Temp;Humidity;BMP_temperature;BMP_pressure;BME280_temperature;BME280_humidity;BME280_pressure;Samples;Min_cycle;Max_cycle;Signal;HPM_P1;HPM_P2
2022/03/27 00:00:18;;;;;;;10.18;5.45;;;7.40;99.90;;;;;;5072065;28;20076;-73
2022/03/27 00:02:44;;;;;;;8.98;4.72;;;7.30;99.90;;;;;;5055271;28;20040;-74
2022/03/27 00:05:10;;;;;;;7.20;5.07;;;7.30;99.90;;;;;;5072090;28;20131;-73
2022/03/27 00:07:37;;;;;;;11.45;5.53;;;8.20;99.90;;;;;;5073865;28;20043;-72
2022/03/27 00:10:04;;;;;;;9.45;5.55;;;7.30;99.90;;;;;;5042480;28;20045;-72
2022/03/27 00:12:31;;;;;;;10.65;5.85;;;7.30;99.90;;;;;;5075748;28;20040;-73
2022/03/27 00:14:57;;;;;;;11.73;5.80;;;7.30;99.90;;;;;;5075995;28;20094;-73
2022/03/27 00:17:23;;;;;;;12.98;7.05;;;7.30;99.90;;;;;;5059480;28;20048;-72
2022/03/27 00:19:49;;;;;;;12.00;5.95;;;7.30;99.90;;;;;;5075444;28;20127;-73
2022/03/27 00:22:15;;;;;;;11.90;5.95;;;7.40;99.90;;;;;;5075447;28;20066;-74
2022/03/27 00:24:41;;;;;;;9.07;5.28;;;7.40;99.90;;;;;;5058955;28;20551;-73
2022/03/27 00:27:06;;;;;;;12.15;5.95;;;7.40;99.90;;;;;;5058976;28;20131;-73
2022/03/27 00:29:32;;;;;;;10.10;6.00;;;7.40;99.90;;;;;;5058876;28;20032;-72
2022/03/27 00:31:58;;;;;;;12.70;6.50;;;7.40;99.90;;;;;;5026100;28;20032;-73
2022/03/27 00:34:24;;;;;;;10.73;6.68;;;8.40;99.90;;;;;;5058753;28;20073;-72
2022/03/27 00:36:49;;;;;;;11.68;6.93;;;7.40;99.90;;;;;;5075279;28;20408;-71
2022/03/27 00:39:15;;;;;;;12.50;7.32;;;7.80;99.90;;;;;;5058349;28;20040;-73
2022/03/27 00:41:43;;;;;;;10.88;7.15;;;7.40;99.90;;;;;;5041704;28;20036;-73
2022/03/27 00:44:09;;;;;;;12.13;7.35;;;7.40;99.90;;;;;;5075641;28;20137;-73
2022/03/27 00:46:35;;;;;;;11.88;6.90;;;8.50;99.90;;;;;;5074873;28;20087;-72
2022/03/27 00:49:00;;;;;;;15.77;6.93;;;7.90;99.90;;;;;;5075474;28;20119;-72
2022/03/27 00:51:26;;;;;;;14.98;7.75;;;7.40;99.90;;;;;;5058376;28;20033;-72
2022/03/27 00:53:52;;;;;;;12.45;7.75;;;7.40;99.90;;;;;;5058451;28;20067;-73
2022/03/27 00:56:17;;;;;;;12.57;7.38;;;7.40;99.90;;;;;;5075363;28;20087;-72
2022/03/27 00:58:43;;;;;;;11.75;7.88;;;7.50;99.90;;;;;;5058394;28;20048;-72
2022/03/27 01:01:25;;;;;;;14.60;8.00;;;7.70;99.90;;;;;;5058412;28;20040;-73
2022/03/27 01:03:54;;;;;;;9.50;6.57;;;7.20;99.90;;;;;;5074872;28;20044;-71
2022/03/27 01:06:41;;;;;;;12.30;7.28;;;7.10;99.90;;;;;;5075207;28;20488;-72
2022/03/27 01:11:54;;;;;;;11.18;6.55;;;8.00;99.90;;;;;;5074711;28;20043;-72
2022/03/27 01:14:31;;;;;;;12.07;6.43;;;6.90;99.90;;;;;;5074857;28;20044;-72
2022/03/27 01:17:09;;;;;;;9.93;6.30;;;6.80;99.90;;;;;;5074386;28;20047;-72
2022/03/27 01:19:52;;;;;;;11.02;6.47;;;6.70;99.90;;;;;;5074110;28;20507;-72
2022/03/27 01:22:19;;;;;;;10.43;6.07;;;6.70;99.90;;;;;;5074881;28;20045;-73
2022/03/27 01:24:48;;;;;;;10.40;6.35;;;6.60;99.90;;;;;;5057672;28;20098;-73
2022/03/27 01:27:14;;;;;;;10.90;6.25;;;6.60;99.90;;;;;;5074162;28;20131;-73
2022/03/27 01:29:39;;;;;;;10.70;6.70;;;6.50;99.90;;;;;;5057762;28;20079;-73
2022/03/27 01:32:07;;;;;;;10.50;5.78;;;6.50;99.90;;;;;;5074697;28;20050;-72
2022/03/27 01:34:34;;;;;;;12.23;6.43;;;6.40;99.90;;;;;;5057635;28;20040;-72
2022/03/27 01:37:07;;;;;;;9.32;6.28;;;6.50;99.90;;;;;;5074208;28;20128;-74
2022/03/27 01:39:33;;;;;;;9.20;5.40;;;7.10;99.90;;;;;;5074210;28;20048;-72
2022/03/27 01:41:59;;;;;;;12.02;6.25;;;6.30;99.90;;;;;;5074491;28;20056;-72
2022/03/27 01:44:25;;;;;;;9.57;5.57;;;6.50;99.90;;;;;;5074805;28;20404;-72
2022/03/27 01:46:52;;;;;;;14.00;6.80;;;7.10;99.90;;;;;;5074213;28;20061;-73
2022/03/27 01:49:19;;;;;;;10.52;6.22;;;7.40;99.90;;;;;;5073668;28;20036;-73
2022/03/27 01:51:45;;;;;;;10.32;6.38;;;6.20;99.90;;;;;;5073845;28;20129;-73
2022/03/27 01:54:12;;;;;;;13.38;6.82;;;6.60;99.90;;;;;;5056963;28;20039;-73
2022/03/27 01:56:38;;;;;;;11.98;5.97;;;6.20;99.90;;;;;;5057011;28;20515;-73
2022/03/27 01:59:05;;;;;;;13.20;6.47;;;6.20;99.90;;;;;;5073568;28;20117;-74
2022/03/27 02:01:32;;;;;;;14.18;6.57;;;6.70;99.90;;;;;;5073446;28;20048;-74
2022/03/27 02:03:57;;;;;;;13.52;7.13;;;6.20;99.90;;;;;;5073373;28;20080;-73
2022/03/27 02:06:26;;;;;;;15.02;6.82;;;6.20;99.90;;;;;;5073188;28;20095;-73
2022/03/27 02:08:52;;;;;;;15.43;7.32;;;6.10;99.90;;;;;;5073916;28;20484;-73
2022/03/27 02:11:19;;;;;;;13.75;7.00;;;6.20;99.90;;;;;;5073669;28;20062;-72
2022/03/27 02:13:45;;;;;;;12.32;7.20;;;6.10;99.90;;;;;;5073837;28;20037;-73
2022/03/27 02:16:11;;;;;;;9.02;6.20;;;6.10;99.90;;;;;;5073156;28;20094;-72
2022/03/27 02:18:37;;;;;;;12.60;7.22;;;6.10;99.90;;;;;;5040192;28;20124;-72
2022/03/27 02:21:05;;;;;;;12.75;6.65;;;6.00;99.90;;;;;;5040580;28;20051;-72
2022/03/27 02:23:31;;;;;;;10.30;6.32;;;6.00;99.90;;;;;;5056348;28;20131;-73
2022/03/27 02:25:56;;;;;;;16.40;7.55;;;6.00;99.90;;;;;;5071941;28;20132;-73
2022/03/27 02:28:23;;;;;;;14.80;6.68;;;6.60;99.90;;;;;;5072561;28;20043;-73
2022/03/27 02:30:48;;;;;;;13.43;6.13;;;6.00;99.90;;;;;;5055896;28;20483;-74
2022/03/27 02:33:14;;;;;;;13.60;6.60;;;6.00;99.90;;;;;;5072668;28;20047;-72
2022/03/27 02:35:40;;;;;;;17.23;6.50;;;6.00;99.90;;;;;;5056086;28;20135;-72
2022/03/27 02:38:07;;;;;;;14.55;6.53;;;6.00;99.90;;;;;;5055925;28;20132;-73
2022/03/27 02:40:34;;;;;;;18.27;8.73;;;5.90;99.90;;;;;;5072576;28;20118;-73
2022/03/27 02:43:00;;;;;;;10.82;6.10;;;6.10;99.90;;;;;;5071818;28;20048;-73
2022/03/27 02:45:26;;;;;;;18.70;6.25;;;6.10;99.90;;;;;;5071425;28;20044;-73
2022/03/27 02:47:56;;;;;;;13.05;6.20;;;6.10;99.90;;;;;;5071413;28;20048;-72
2022/03/27 02:50:24;;;;;;;14.02;6.55;;;7.20;99.90;;;;;;5071551;28;20044;-73
2022/03/27 02:52:50;;;;;;;13.25;5.95;;;6.30;99.90;;;;;;5054636;28;20123;-73
2022/03/27 02:55:16;;;;;;;16.58;6.50;;;6.10;99.90;;;;;;5054719;28;20079;-73
2022/03/27 02:57:42;;;;;;;15.40;6.43;;;6.10;99.90;;;;;;5071375;28;20044;-73
2022/03/27 03:00:09;;;;;;;13.45;6.30;;;6.20;99.90;;;;;;5038352;28;20044;-72
2022/03/27 03:02:35;;;;;;;17.55;6.13;;;6.10;99.90;;;;;;5021654;28;20033;-73
2022/03/27 03:05:02;;;;;;;19.20;7.13;;;6.10;99.90;;;;;;5071153;28;20040;-73
2022/03/27 03:07:28;;;;;;;13.90;5.75;;;6.10;99.90;;;;;;5054209;28;20041;-72
2022/03/27 03:09:54;;;;;;;19.33;6.95;;;6.10;99.90;;;;;;5054371;28;20044;-73
2022/03/27 03:12:20;;;;;;;16.27;6.45;;;6.20;99.90;;;;;;5054445;28;20072;-73
2022/03/27 03:14:47;;;;;;;14.40;5.90;;;6.20;99.90;;;;;;5071226;28;20513;-72
2022/03/27 03:17:12;;;;;;;21.85;6.55;;;6.20;99.90;;;;;;5054274;28;20377;-73
2022/03/27 03:19:39;;;;;;;21.27;7.05;;;6.10;99.90;;;;;;5070894;28;20044;-73
2022/03/27 03:22:07;;;;;;;17.67;6.57;;;6.20;99.90;;;;;;5071211;28;20053;-73
2022/03/27 03:24:33;;;;;;;18.10;6.93;;;6.20;99.90;;;;;;5021918;28;20035;-74
2022/03/27 03:26:59;;;;;;;18.38;7.10;;;6.20;99.90;;;;;;5070696;28;20205;-73
2022/03/27 03:29:25;;;;;;;18.85;7.28;;;7.10;99.90;;;;;;5054151;28;20128;-73
2022/03/27 03:31:50;;;;;;;22.15;7.63;;;6.20;99.90;;;;;;5070647;28;20063;-72
2022/03/27 03:34:16;;;;;;;16.98;6.72;;;6.20;99.90;;;;;;5053959;28;20064;-73
2022/03/27 03:36:43;;;;;;;22.58;7.90;;;6.20;99.90;;;;;;5053933;28;20626;-73
2022/03/27 03:39:09;;;;;;;17.13;7.55;;;6.70;99.90;;;;;;5053967;28;20126;-73
2022/03/27 03:41:35;;;;;;;21.67;8.38;;;6.20;99.90;;;;;;5069938;28;20044;-73
2022/03/27 03:44:01;;;;;;;23.48;8.50;;;5.90;99.90;;;;;;5037477;28;20063;-73
2022/03/27 03:46:27;;;;;;;25.92;7.95;;;6.90;99.90;;;;;;5053683;28;20044;-73
2022/03/27 03:48:53;;;;;;;21.23;7.22;;;6.30;99.90;;;;;;5070826;28;20133;-73
2022/03/27 03:51:19;;;;;;;19.25;7.88;;;6.30;99.90;;;;;;5053876;28;20055;-73
2022/03/27 03:53:44;;;;;;;20.50;7.57;;;6.30;99.90;;;;;;5070807;28;20044;-73
2022/03/27 03:56:13;;;;;;;24.63;7.38;;;6.60;99.90;;;;;;5070493;28;20044;-73
2022/03/27 03:58:39;;;;;;;23.27;6.78;;;6.40;99.90;;;;;;5070732;28;20048;-74
2022/03/27 04:01:04;;;;;;;19.45;7.47;;;6.40;99.90;;;;;;5053774;28;20040;-73
2022/03/27 04:03:31;;;;;;;22.10;8.02;;;6.40;99.90;;;;;;5070439;28;20044;-73
2022/03/27 04:05:56;;;;;;;22.02;9.05;;;6.40;99.90;;;;;;5070593;28;20033;-73
2022/03/27 04:08:22;;;;;;;26.23;6.93;;;6.50;99.90;;;;;;5053644;28;20098;-74
2022/03/27 04:10:48;;;;;;;23.00;7.22;;;6.50;99.90;;;;;;5070621;28;20396;-73
2022/03/27 04:13:14;;;;;;;21.98;7.15;;;6.50;99.90;;;;;;5054096;28;20036;-73
2022/03/27 04:15:40;;;;;;;25.75;7.68;;;6.80;99.90;;;;;;5070477;28;20044;-72
2022/03/27 04:18:06;;;;;;;22.30;7.05;;;6.50;99.90;;;;;;5070470;28;20043;-73
2022/03/27 04:20:32;;;;;;;17.05;6.25;;;6.60;99.90;;;;;;5070432;28;20561;-73
2022/03/27 04:22:58;;;;;;;28.02;8.70;;;6.60;99.90;;;;;;5037413;28;20080;-73
2022/03/27 04:25:24;;;;;;;18.60;7.25;;;7.20;99.90;;;;;;5069804;28;20092;-73
2022/03/27 04:27:49;;;;;;;17.45;7.05;;;6.70;99.90;;;;;;5053756;28;20133;-73
2022/03/27 04:30:15;;;;;;;27.70;8.25;;;7.60;99.90;;;;;;5070478;28;20032;-73
2022/03/27 04:32:41;;;;;;;24.80;7.70;;;6.70;99.90;;;;;;5070527;28;20123;-73
2022/03/27 04:35:09;;;;;;;26.55;7.57;;;7.30;99.90;;;;;;5053811;28;20040;-73
2022/03/27 04:37:39;;;;;;;18.77;6.50;;;6.60;99.90;;;;;;5070170;28;20183;-74
2022/03/27 04:40:05;;;;;;;28.02;6.75;;;6.60;99.90;;;;;;5069992;28;20113;-73
2022/03/27 04:42:31;;;;;;;31.90;7.32;;;6.70;99.90;;;;;;5053393;28;20047;-73
2022/03/27 04:44:57;;;;;;;32.13;7.03;;;6.70;99.90;;;;;;5070015;28;20412;-74
2022/03/27 04:47:23;;;;;;;29.33;7.90;;;6.70;99.90;;;;;;5053231;28;20397;-73
2022/03/27 04:49:49;;;;;;;24.83;7.25;;;6.70;99.90;;;;;;5069965;28;20056;-74
2022/03/27 04:52:14;;;;;;;35.15;8.25;;;6.70;99.90;;;;;;5053623;28;20037;-72
2022/03/27 04:54:40;;;;;;;28.02;8.05;;;6.70;99.90;;;;;;5055252;28;20043;-73
2022/03/27 04:57:06;;;;;;;31.88;8.23;;;6.80;99.90;;;;;;5056687;28;20080;-74
2022/03/27 04:59:32;;;;;;;31.42;9.00;;;6.90;99.90;;;;;;5073636;28;20048;-73
2022/03/27 05:01:59;;;;;;;34.67;8.95;;;6.70;99.90;;;;;;5073637;28;20488;-73
2022/03/27 05:04:25;;;;;;;31.42;9.23;;;6.70;99.90;;;;;;5073618;28;20500;-73
2022/03/27 05:06:51;;;;;;;32.63;9.15;;;6.70;99.90;;;;;;5073086;28;20044;-73
2022/03/27 05:09:18;;;;;;;26.73;7.80;;;6.70;99.90;;;;;;5073544;28;20127;-73
2022/03/27 05:11:45;;;;;;;23.85;8.25;;;6.70;99.90;;;;;;5073576;28;20040;-74
2022/03/27 05:14:11;;;;;;;16.40;8.20;;;6.70;99.90;;;;;;5073116;28;20036;-75
2022/03/27 05:16:36;;;;;;;20.77;8.63;;;7.80;99.90;;;;;;5056762;28;20048;-73
2022/03/27 05:19:04;;;;;;;25.52;9.15;;;6.70;99.90;;;;;;5073142;28;20049;-73
2022/03/27 05:21:30;;;;;;;20.15;9.05;;;6.70;99.90;;;;;;5056909;28;20051;-74
2022/03/27 05:23:56;;;;;;;21.60;8.85;;;6.70;99.90;;;;;;5023283;28;20036;-72
2022/03/27 05:26:22;;;;;;;19.17;8.65;;;6.80;99.90;;;;;;5072477;28;20095;-73
2022/03/27 05:28:47;;;;;;;26.90;8.85;;;7.20;99.90;;;;;;5072828;28;20070;-73
2022/03/27 05:31:13;;;;;;;19.10;8.52;;;7.50;99.90;;;;;;5039670;28;20036;-74
2022/03/27 05:33:39;;;;;;;26.15;9.75;;;6.60;99.90;;;;;;5056369;28;20182;-74
2022/03/27 05:36:07;;;;;;;17.63;7.88;;;6.60;99.90;;;;;;5073109;28;20044;-74
2022/03/27 05:38:34;;;;;;;19.13;8.57;;;6.60;99.90;;;;;;5056112;28;20412;-74
2022/03/27 05:41:00;;;;;;;20.00;8.80;;;6.70;99.90;;;;;;5072639;28;20411;-74
2022/03/27 05:43:26;;;;;;;21.17;9.52;;;6.50;99.90;;;;;;5055984;28;20028;-74
2022/03/27 05:45:53;;;;;;;19.35;8.27;;;6.60;99.90;;;;;;5039196;28;20044;-73
2022/03/27 05:48:19;;;;;;;20.40;7.80;;;6.50;99.90;;;;;;5056057;28;20044;-73
2022/03/27 05:50:45;;;;;;;21.92;8.25;;;6.50;99.90;;;;;;5055913;28;20037;-75
2022/03/27 05:53:11;;;;;;;26.17;8.82;;;6.50;99.90;;;;;;5072406;28;20052;-73
2022/03/27 05:55:37;;;;;;;20.70;8.32;;;6.50;99.90;;;;;;5072444;28;20044;-74
2022/03/27 05:58:03;;;;;;;28.50;10.27;;;6.50;99.90;;;;;;5055808;28;20048;-73
2022/03/27 06:00:28;;;;;;;24.90;9.18;;;6.50;99.90;;;;;;5072343;28;20049;-73
2022/03/27 06:02:54;;;;;;;25.33;8.80;;;6.50;99.90;;;;;;5073045;28;20051;-72
2022/03/27 06:05:24;;;;;;;20.08;9.10;;;6.50;99.90;;;;;;5072673;28;20072;-73
2022/03/27 06:07:59;;;;;;;21.85;8.57;;;6.50;99.90;;;;;;5056689;28;20048;-72
2022/03/27 06:10:32;;;;;;;21.35;8.75;;;6.50;99.90;;;;;;5073187;28;20037;-73
2022/03/27 06:12:59;;;;;;;28.42;9.25;;;6.90;99.90;;;;;;5073062;28;20048;-72
2022/03/27 06:15:27;;;;;;;30.95;9.43;;;6.50;99.90;;;;;;5072975;28;20087;-72
2022/03/27 06:17:55;;;;;;;23.40;7.93;;;6.60;99.90;;;;;;5073370;28;20048;-73
2022/03/27 06:20:27;;;;;;;33.10;9.13;;;6.60;99.90;;;;;;5073362;28;20067;-73
2022/03/27 06:22:53;;;;;;;30.13;9.82;;;6.70;99.90;;;;;;5073334;28;20742;-73
2022/03/27 06:25:25;;;;;;;26.88;8.30;;;6.70;99.90;;;;;;5072851;28;20105;-73
2022/03/27 06:27:51;;;;;;;30.83;8.32;;;7.70;99.90;;;;;;5072661;28;20117;-73
2022/03/27 06:30:20;;;;;;;28.48;8.07;;;7.70;99.90;;;;;;5056089;28;20118;-73
2022/03/27 06:32:46;;;;;;;26.67;8.00;;;6.90;99.90;;;;;;5056314;28;20365;-74
2022/03/27 06:35:15;;;;;;;29.27;9.05;;;6.90;99.90;;;;;;5056337;28;20181;-72
2022/03/27 06:37:41;;;;;;;25.80;7.75;;;7.00;99.90;;;;;;5056202;28;20052;-73
2022/03/27 06:40:08;;;;;;;34.40;9.27;;;7.10;99.90;;;;;;5055842;28;20123;-74
2022/03/27 06:42:34;;;;;;;32.17;9.05;;;7.20;99.90;;;;;;5055877;28;20119;-74
2022/03/27 06:45:00;;;;;;;29.23;7.82;;;7.40;99.90;;;;;;5072428;28;20103;-72
2022/03/27 06:47:27;;;;;;;33.75;8.73;;;7.40;99.90;;;;;;5071736;28;20113;-73
2022/03/27 06:49:54;;;;;;;31.83;8.23;;;7.40;99.90;;;;;;5072597;28;20036;-72
2022/03/27 06:52:21;;;;;;;30.35;8.75;;;7.50;99.90;;;;;;5072290;28;20048;-73
2022/03/27 06:54:47;;;;;;;29.83;7.78;;;7.60;99.90;;;;;;5055784;28;20059;-73
2022/03/27 06:57:14;;;;;;;35.15;10.13;;;7.60;99.90;;;;;;5072386;28;20037;-73
2022/03/27 07:05:09;;;;;;;29.83;8.13;;;7.80;99.90;;;;;;5071990;28;20139;-73
2022/03/27 07:07:36;;;;;;;35.35;9.63;;;7.70;99.90;;;;;;5072140;28;20381;-75
2022/03/27 07:10:03;;;;;;;32.55;8.65;;;7.80;99.90;;;;;;5055581;28;20049;-74
2022/03/27 07:12:29;;;;;;;30.17;8.65;;;7.70;99.90;;;;;;5072781;28;20044;-73
2022/03/27 07:14:54;;;;;;;43.45;9.10;;;7.80;99.90;;;;;;5055732;28;20039;-73
2022/03/27 07:17:20;;;;;;;40.65;9.32;;;7.80;99.90;;;;;;5038210;28;20071;-73
2022/03/27 07:19:46;;;;;;;44.25;9.38;;;7.90;99.90;;;;;;5055043;28;20044;-72
2022/03/27 07:22:13;;;;;;;33.00;9.10;;;7.90;99.90;;;;;;5072275;28;20431;-73
2022/03/27 07:24:38;;;;;;;43.08;9.65;;;8.20;99.90;;;;;;5072166;28;20159;-74
2022/03/27 07:27:04;;;;;;;41.42;9.15;;;9.00;99.90;;;;;;5055114;28;20049;-73
2022/03/27 07:29:31;;;;;;;36.42;9.73;;;8.10;99.90;;;;;;5072372;28;20044;-72
2022/03/27 07:31:57;;;;;;;37.00;9.55;;;8.10;99.90;;;;;;5055793;28;20040;-72
2022/03/27 07:34:23;;;;;;;34.03;9.10;;;8.10;99.90;;;;;;5056081;28;20036;-73
2022/03/27 07:36:49;;;;;;;42.78;8.77;;;8.20;99.90;;;;;;5055606;28;20060;-74
2022/03/27 07:39:15;;;;;;;32.40;8.25;;;8.20;99.90;;;;;;5071623;28;20515;-73
2022/03/27 07:41:41;;;;;;;36.50;8.40;;;8.30;99.90;;;;;;5071588;28;20036;-73
2022/03/27 07:44:06;;;;;;;45.00;11.65;;;8.60;99.90;;;;;;5071831;28;20064;-74
2022/03/27 07:46:32;;;;;;;41.30;9.73;;;8.30;99.90;;;;;;5054633;28;20127;-73
2022/03/27 07:48:58;;;;;;;39.42;10.43;;;8.30;99.90;;;;;;5054287;28;20037;-71
2022/03/27 07:51:25;;;;;;;38.92;10.88;;;8.40;99.90;;;;;;5054509;28;20499;-73
2022/03/27 07:53:51;;;;;;;35.92;9.45;;;8.70;99.90;;;;;;5070788;28;20051;-72
2022/03/27 07:56:18;;;;;;;41.53;9.40;;;8.50;99.90;;;;;;5054228;28;20074;-72
2022/03/27 07:58:44;;;;;;;30.60;10.13;;;8.50;99.90;;;;;;5070845;28;20044;-72
2022/03/27 08:01:12;;;;;;;37.60;8.82;;;8.50;99.90;;;;;;5070860;28;20132;-73
2022/03/27 08:03:39;;;;;;;38.80;9.80;;;8.60;99.90;;;;;;5070377;28;20076;-73
2022/03/27 08:06:06;;;;;;;38.00;9.95;;;9.20;99.90;;;;;;5054351;28;20045;-73
2022/03/27 08:08:32;;;;;;;32.95;7.82;;;8.60;99.90;;;;;;5054021;28;20048;-73
2022/03/27 08:10:58;;;;;;;39.20;8.77;;;8.60;99.90;;;;;;5053827;28;20048;-72
2022/03/27 08:13:24;;;;;;;39.63;10.20;;;8.70;99.90;;;;;;5053644;28;20036;-72
2022/03/27 08:15:50;;;;;;;37.88;9.38;;;8.80;99.90;;;;;;5053760;28;20118;-72
2022/03/27 08:18:16;;;;;;;38.30;9.48;;;8.90;99.90;;;;;;5070310;28;20044;-73
2022/03/27 08:20:42;;;;;;;33.25;7.80;;;9.00;99.90;;;;;;5053735;28;20411;-73
2022/03/27 08:23:07;;;;;;;34.20;8.52;;;9.00;99.90;;;;;;5070263;28;20389;-73
2022/03/27 08:28:20;;;;;;;31.95;8.18;;;9.20;99.90;;;;;;5057712;28;20055;-71
2022/03/27 08:30:49;;;;;;;37.88;8.48;;;9.10;99.90;;;;;;5074003;28;20399;-72
2022/03/27 08:33:16;;;;;;;33.28;9.23;;;9.00;99.90;;;;;;5074199;28;20039;-72
2022/03/27 08:35:43;;;;;;;44.65;9.75;;;9.50;99.90;;;;;;5074172;28;20040;-72
2022/03/27 08:38:14;;;;;;;33.88;7.35;;;9.80;99.90;;;;;;5057615;28;20048;-73
2022/03/27 08:40:41;;;;;;;;;;;9.20;99.90;;;;;;5057679;28;20120;-71
2022/03/27 08:43:12;;;;;;;37.47;9.25;;;9.20;99.90;;;;;;5073862;28;19917;-71
2022/03/27 08:45:39;;;;;;;31.92;9.45;;;9.40;99.90;;;;;;5073997;28;20040;-71
2022/03/27 08:48:05;;;;;;;39.08;9.35;;;9.50;99.90;;;;;;5073792;28;20051;-72
2022/03/27 08:50:58;;;;;;;33.25;7.80;;;9.60;99.90;;;;;;5073576;28;20043;-74
2022/03/27 08:53:38;;;;;;;30.25;8.43;;;9.80;99.90;;;;;;5073856;28;20044;-74
2022/03/27 08:56:06;;;;;;;32.40;7.95;;;10.00;99.90;;;;;;5073692;28;20045;-74
2022/03/27 08:58:37;;;;;;;34.05;9.30;;;10.20;99.90;;;;;;5073244;28;20047;-74
2022/03/27 09:01:05;;;;;;;30.83;7.60;;;11.20;99.90;;;;;;5073324;28;20047;-73
2022/03/27 09:03:31;;;;;;;33.05;8.65;;;10.60;99.90;;;;;;5073313;28;20109;-72
2022/03/27 09:05:59;;;;;;;32.15;7.53;;;10.60;99.90;;;;;;5073262;28;20040;-72
2022/03/27 09:08:25;;;;;;;37.50;8.65;;;10.70;99.90;;;;;;5056495;28;20037;-73
2022/03/27 09:10:51;;;;;;;26.42;7.68;;;10.80;99.90;;;;;;5073325;28;20047;-73
2022/03/27 09:13:19;;;;;;;39.88;8.77;;;10.80;99.90;;;;;;5073320;28;20369;-70
2022/03/27 09:15:55;;;;;;;34.17;7.47;;;10.90;99.90;;;;;;5057068;28;20086;-74
2022/03/27 09:18:21;;;;;;;32.33;9.68;;;11.00;99.90;;;;;;5056452;28;20063;-73
2022/03/27 09:20:52;;;;;;;32.72;7.50;;;11.80;99.90;;;;;;5072881;28;20036;-73
2022/03/27 09:23:21;;;;;;;25.10;6.78;;;11.20;99.90;;;;;;5072990;28;20037;-73
2022/03/27 09:25:53;;;;;;;32.45;7.50;;;11.30;99.90;;;;;;5072762;28;20052;-74
2022/03/27 09:28:22;;;;;;;29.67;7.55;;;11.30;99.90;;;;;;5056934;28;20127;-75
2022/03/27 09:30:48;;;;;;;29.85;7.82;;;11.40;99.90;;;;;;5056093;28;20118;-72
2022/03/27 09:33:34;;;;;;;27.95;8.40;;;11.50;99.90;;;;;;5056171;28;20119;-72
2022/03/27 09:36:06;;;;;;;37.22;8.05;;;11.60;99.90;;;;;;5055959;28;20119;-75
2022/03/27 09:38:31;;;;;;;34.92;8.90;;;11.60;99.90;;;;;;5056466;28;20117;-73
2022/03/27 09:40:57;;;;;;;24.50;6.78;;;11.70;99.90;;;;;;5055017;28;20044;-69
2022/03/27 09:43:23;;;;;;;28.85;7.55;;;12.00;99.90;;;;;;5055779;28;20571;-71
2022/03/27 09:46:01;;;;;;;32.42;8.85;;;11.90;99.90;;;;;;5055752;28;20127;-73
2022/03/27 09:48:28;;;;;;;26.67;7.80;;;12.00;99.90;;;;;;5056125;28;20036;-71
2022/03/27 09:50:57;;;;;;;29.50;7.25;;;12.10;99.90;;;;;;5056300;28;20052;-73
2022/03/27 09:53:24;;;;;;;30.02;6.50;;;12.20;99.90;;;;;;5056379;28;20037;-73
2022/03/27 09:55:59;;;;;;;28.33;8.95;;;12.20;99.90;;;;;;5073088;28;20043;-73
2022/03/27 09:58:46;;;;;;;25.70;6.80;;;12.20;99.90;;;;;;5072375;28;20078;-73
2022/03/27 10:01:20;;;;;;;24.05;6.57;;;12.40;99.90;;;;;;5072553;28;20510;-73
2022/03/27 10:04:13;;;;;;;28.70;7.18;;;12.60;99.90;;;;;;5072222;28;20126;-72
2022/03/27 10:06:40;;;;;;;27.85;6.53;;;12.70;99.90;;;;;;5072090;28;20049;-73
2022/03/27 10:09:12;;;;;;;29.33;7.03;;;12.80;99.90;;;;;;5072050;28;20043;-73
2022/03/27 10:11:40;;;;;;;35.25;7.57;;;12.90;99.90;;;;;;5071967;28;20063;-72
2022/03/27 10:14:09;;;;;;;28.92;7.38;;;13.00;99.90;;;;;;5072182;28;20400;-72
2022/03/27 10:16:42;;;;;;;28.08;6.80;;;12.90;99.90;;;;;;5072176;28;20076;-71
2022/03/27 10:19:34;;;;;;;25.75;7.35;;;12.90;99.90;;;;;;5055258;28;20130;-72
2022/03/27 10:22:02;;;;;;;28.08;6.70;;;13.00;99.90;;;;;;5072204;28;20127;-73
2022/03/27 10:24:32;;;;;;;23.05;7.07;;;13.10;99.90;;;;;;5071829;28;20044;-72
2022/03/27 10:27:02;;;;;;;22.65;6.40;;;13.10;99.90;;;;;;5054866;28;20048;-72
2022/03/27 10:29:29;;;;;;;18.60;6.05;;;13.30;99.90;;;;;;5055000;28;20444;-73
2022/03/27 10:31:57;;;;;;;19.48;6.22;;;13.30;99.90;;;;;;5071512;28;20051;-71
2022/03/27 10:34:23;;;;;;;27.13;6.63;;;13.50;99.90;;;;;;5071700;28;20097;-72
2022/03/27 10:36:49;;;;;;;20.73;6.38;;;13.40;99.90;;;;;;5054948;28;20084;-72
2022/03/27 10:39:32;;;;;;;25.42;6.15;;;13.50;99.90;;;;;;5054697;28;20087;-72
2022/03/27 10:42:07;;;;;;;21.38;5.60;;;13.60;99.90;;;;;;5071851;28;20064;-71
2022/03/27 10:44:41;;;;;;;23.15;6.57;;;13.80;99.90;;;;;;5054945;28;20090;-71
2022/03/27 10:47:15;;;;;;;18.30;5.25;;;13.90;99.90;;;;;;5071425;28;20123;-71
2022/03/27 10:49:43;;;;;;;20.77;5.95;;;13.90;99.90;;;;;;5071547;28;20328;-72
2022/03/27 10:52:09;;;;;;;23.15;5.85;;;14.10;99.90;;;;;;5071448;28;20044;-72
2022/03/27 10:54:55;;;;;;;21.85;6.05;;;14.10;99.90;;;;;;5071204;28;20040;-73
2022/03/27 10:57:33;;;;;;;21.27;5.90;;;14.20;99.90;;;;;;5071030;28;20049;-72
2022/03/27 10:59:59;;;;;;;22.77;7.00;;;14.10;99.90;;;;;;5071077;28;20044;-73
2022/03/27 11:02:48;;;;;;;24.55;5.88;;;14.20;99.90;;;;;;5071207;28;20449;-73
2022/03/27 11:05:30;;;;;;;19.92;5.57;;;14.30;99.90;;;;;;5054254;28;20060;-73
2022/03/27 11:08:17;;;;;;;20.40;5.05;;;14.30;99.90;;;;;;5070858;28;20044;-72
2022/03/27 11:10:52;;;;;;;22.73;6.25;;;14.40;99.90;;;;;;5054492;28;20663;-72
2022/03/27 11:13:27;;;;;;;29.92;6.82;;;14.30;99.90;;;;;;5071281;28;20040;-71
2022/03/27 11:16:07;;;;;;;18.08;5.50;;;14.50;99.90;;;;;;5070779;28;20083;-72
2022/03/27 11:18:49;;;;;;;24.63;5.82;;;14.50;99.90;;;;;;5070746;28;20075;-73
2022/03/27 11:21:38;;;;;;;18.23;5.55;;;14.50;99.90;;;;;;5071113;28;20458;-72
2022/03/27 11:24:04;;;;;;;19.25;5.65;;;14.70;99.90;;;;;;5046557;28;20087;-73
2022/03/27 11:26:30;;;;;;;23.05;5.93;;;14.70;99.90;;;;;;5070520;28;20088;-72
2022/03/27 11:28:59;;;;;;;23.27;5.22;;;14.80;99.90;;;;;;5070922;28;20123;-71
2022/03/27 11:31:33;;;;;;;19.67;5.13;;;14.90;99.90;;;;;;5070851;28;20377;-72
2022/03/27 11:34:14;;;;;;;27.00;5.30;;;15.10;99.90;;;;;;5070454;28;20099;-73
2022/03/27 11:37:12;;;;;;;18.77;4.88;;;15.20;99.90;;;;;;5070712;28;20051;-71
2022/03/27 11:39:39;;;;;;;19.27;4.90;;;15.40;99.90;;;;;;5054111;28;20044;-72
2022/03/27 11:42:38;;;;;;;19.98;5.43;;;15.50;99.90;;;;;;5070703;28;20040;-73
2022/03/27 11:45:17;;;;;;;19.05;5.30;;;15.70;99.90;;;;;;5038120;28;20103;-73
2022/03/27 11:47:52;;;;;;;17.58;5.28;;;15.80;99.90;;;;;;5070376;28;20123;-72
2022/03/27 11:50:31;;;;;;;15.45;4.50;;;15.90;99.90;;;;;;5070826;28;20488;-72
2022/03/27 11:52:58;;;;;;;16.73;5.57;;;16.00;99.90;;;;;;5070517;28;20045;-72
2022/03/27 11:55:28;;;;;;;17.58;4.70;;;16.00;99.90;;;;;;5037564;28;20407;-72
2022/03/27 11:57:56;;;;;;;17.63;4.65;;;16.20;99.90;;;;;;5070711;28;20048;-72
2022/03/27 12:00:35;;;;;;;17.20;5.30;;;16.20;99.90;;;;;;5053809;28;20115;-71
2022/03/27 12:03:03;;;;;;;18.35;5.60;;;16.40;97.60;;;;;;5071564;28;20055;-72
2022/03/27 12:05:37;;;;;;;17.95;4.90;;;16.40;99.10;;;;;;5057935;28;20402;-73
2022/03/27 12:08:04;;;;;;;15.15;5.13;;;16.60;98.70;;;;;;5057680;28;20043;-73
2022/03/27 12:10:42;;;;;;;15.68;5.00;;;16.60;98.80;;;;;;5074651;28;20534;-73
2022/03/27 12:13:09;;;;;;;17.25;4.72;;;16.60;97.20;;;;;;5074373;28;20094;-72
2022/03/27 12:15:45;;;;;;;16.40;4.80;;;16.60;97.00;;;;;;5074186;28;20105;-72
2022/03/27 12:18:26;;;;;;;14.25;4.68;;;16.70;95.80;;;;;;5074256;28;20229;-71
2022/03/27 12:20:52;;;;;;;16.02;4.50;;;16.60;95.00;;;;;;5074181;28;20044;-72
2022/03/27 12:23:27;;;;;;;15.35;4.32;;;16.70;95.10;;;;;;5040878;28;20040;-71
2022/03/27 12:29:40;;;;;;;13.57;4.25;;;16.80;93.40;;;;;;5073768;28;20052;-73
2022/03/27 12:32:11;;;;;;;14.48;5.00;;;17.20;92.90;;;;;;5073953;28;20050;-72
2022/03/27 12:34:46;;;;;;;17.30;5.10;;;17.40;92.90;;;;;;5073708;28;20036;-72
2022/03/27 12:37:18;;;;;;;26.73;5.38;;;17.60;93.20;;;;;;5073848;28;20123;-70
2022/03/27 12:39:47;;;;;;;16.25;5.80;;;17.80;91.10;;;;;;5073703;28;20075;-72
2022/03/27 12:42:43;;;;;;;14.52;4.65;;;17.80;91.80;;;;;;5073767;28;20157;-73
2022/03/27 12:45:17;;;;;;;17.15;6.28;;;17.80;89.80;;;;;;5073722;28;20052;-72
2022/03/27 12:47:49;;;;;;;20.10;5.30;;;18.00;91.30;;;;;;5073557;28;20032;-72
2022/03/27 12:50:32;;;;;;;16.33;5.18;;;18.10;89.20;;;;;;5073248;28;20081;-72
2022/03/27 12:53:05;;;;;;;15.52;4.93;;;18.20;90.10;;;;;;5073231;28;20093;-71
2022/03/27 12:55:44;;;;;;;17.45;4.70;;;18.50;88.50;;;;;;5056686;28;20073;-73
2022/03/27 12:58:14;;;;;;;22.85;4.88;;;18.50;90.00;;;;;;5073738;28;20040;-72
2022/03/27 13:00:41;;;;;;;15.27;5.38;;;18.60;90.30;;;;;;5073319;28;20032;-72
2022/03/27 13:03:17;;;;;;;15.25;4.60;;;18.70;89.40;;;;;;5073269;28;20119;-72
2022/03/27 13:06:01;;;;;;;14.90;4.68;;;18.70;85.70;;;;;;5073228;28;20041;-72